Ocoee 3 Observed Data For Previous 48 Hours

Caption
Day and Hour Reservoir Elevation (behind dam)* Tailwater Elevation (below dam)* Average Hourly Discharge*
11/11/2018 2 AM EST 1,430.97 1,118.77 1,084
11/11/2018 3 AM EST 1,431.21 1,118.77 1,058
11/11/2018 4 AM EST 1,431.52 1,118.74 1,057
11/11/2018 5 AM EST 1,431.78 1,118.75 1,057
11/11/2018 6 AM EST 1,431.93 1,118.72 1,056
11/11/2018 7 AM EST 1,431.98 1,118.72 1,052
11/11/2018 8 AM EST 1,431.98 1,118.71 1,056
11/11/2018 9 AM EST 1,431.93 1,118.71 1,052
11/11/2018 10 AM EST 1,431.86 1,118.73 1,052
11/11/2018 11 AM EST 1,431.78 1,118.69 1,048
11/11/2018 12 PM EST 1,431.70 1,118.58 1,050
11/11/2018 1 PM EST 1,431.62 1,118.71 1,049
11/11/2018 2 PM EST 1,431.62 1,118.72 1,049
11/11/2018 3 PM EST 1,431.84 1,118.62 1,049
11/11/2018 4 PM EST 1,432.12 1,118.74 1,050
11/11/2018 5 PM EST 1,432.36 1,118.68 1,048
11/11/2018 6 PM EST 1,432.47 1,118.78 1,050
11/11/2018 7 PM EST 1,432.51 1,118.66 1,044
11/11/2018 8 PM EST 1,432.49 1,118.71 1,049
11/11/2018 9 PM EST 1,432.44 1,118.62 1,049
11/11/2018 10 PM EST 1,432.37 1,118.72 1,054
11/11/2018 11 PM EST 1,432.29 1,118.60 1,047
11/12/2018 12 AM EST 1,432.21 1,118.68 1,051
11/12/2018 1 AM EST 1,432.11 1,119.40 1,068
11/12/2018 2 AM EST 1,432.06 1,119.48 1,369
11/12/2018 3 AM EST 1,432.20 1,119.51 1,372
11/12/2018 4 AM EST 1,432.39 1,119.31 1,374
11/12/2018 5 AM EST 1,432.52 1,119.43 1,373
11/12/2018 6 AM EST 1,432.56 1,119.46 1,375
11/12/2018 7 AM EST 1,432.52 1,119.46 1,373
11/12/2018 8 AM EST 1,432.56 1,114.09 777
11/12/2018 9 AM EST 1,432.42 1,114.09 1,460
11/12/2018 10 AM EST 1,432.27 1,114.10 1,580
11/12/2018 11 AM EST 1,432.10 1,119.84 1,573
11/12/2018 12 PM EST 1,431.93 1,119.89 1,570
11/12/2018 1 PM EST 1,431.79 1,119.99 1,570
11/12/2018 2 PM EST 1,431.67 1,120.11 1,570
11/12/2018 3 PM EST 1,431.59 1,120.20 1,570
11/12/2018 4 PM EST 1,431.60 1,120.39 1,567
11/12/2018 5 PM EST 1,431.71 1,120.63 1,570
11/12/2018 6 PM EST 1,432.01 1,120.89 1,570
11/12/2018 7 PM EST 1,432.52 1,121.08 1,576
11/12/2018 8 PM EST 1,432.93 1,121.31 2,683
11/12/2018 9 PM EST 1,433.35 1,124.23 3,230
11/12/2018 10 PM EST 1,433.85 1,124.20 3,279
11/12/2018 11 PM EST 1,434.30 1,124.34 3,686
11/13/2018 12 AM EST 1,434.80 1,124.33 2,957
11/13/2018 1 AM EST 1,434.25 1,126.85 5,417
11/13/2018 2 AM EST 1,433.67 1,126.94 6,175
11/13/2018 3 AM EST 1,433.01 1,126.82 6,086
11/13/2018 4 AM EST 1,432.26 1,126.72 5,982
11/13/2018 5 AM EST 1,431.36 1,126.59 5,859
11/13/2018 6 AM EST 1,430.26 1,126.47 5,706
11/13/2018 7 AM EST 1,428.87 1,126.30 5,510
11/13/2018 8 AM EST 1,429.40 1,125.59 2,980
11/13/2018 9 AM EST 1,430.02 1,118.06 1,006
11/13/2018 10 AM EST 1,430.48 1,119.44 1,200
11/13/2018 11 AM EST 1,430.89 1,119.50 1,203

Elevations are in feet above sea level. Discharges are in cubic feet per second and are reported at the end of the hour.